sensor_id;sensor_type;location;lat;lon;timestamp;pressure;altitude;pressure_sealevel;temperature;humidity
70684;BME280;58263;48.146;11.440;2022-11-20T00:01:34;95109.78;;;5.90;76.38
70684;BME280;58263;48.146;11.440;2022-11-20T00:04:00;95102.59;;;5.91;76.32
70684;BME280;58263;48.146;11.440;2022-11-20T00:06:27;95106.03;;;5.98;76.66
70684;BME280;58263;48.146;11.440;2022-11-20T00:08:57;95107.06;;;5.97;76.21
70684;BME280;58263;48.146;11.440;2022-11-20T00:11:24;95106.97;;;5.79;76.11
70684;BME280;58263;48.146;11.440;2022-11-20T00:13:52;95112.88;;;5.81;76.86
70684;BME280;58263;48.146;11.440;2022-11-20T00:16:20;95112.63;;;5.89;76.19
70684;BME280;58263;48.146;11.440;2022-11-20T00:18:46;95111.75;;;5.95;76.14
70684;BME280;58263;48.146;11.440;2022-11-20T00:23:38;95117.75;;;5.90;76.51
70684;BME280;58263;48.146;11.440;2022-11-20T00:26:05;95120.25;;;5.85;75.88
70684;BME280;58263;48.146;11.440;2022-11-20T00:28:31;95119.13;;;5.93;76.15
70684;BME280;58263;48.146;11.440;2022-11-20T00:31:07;95120.38;;;5.97;76.56
70684;BME280;58263;48.146;11.440;2022-11-20T00:33:34;95118.88;;;5.76;75.63
70684;BME280;58263;48.146;11.440;2022-11-20T00:36:04;95124.91;;;5.90;75.71
70684;BME280;58263;48.146;11.440;2022-11-20T00:38:31;95119.97;;;5.93;75.55
70684;BME280;58263;48.146;11.440;2022-11-20T00:41:01;95121.22;;;5.91;75.73
70684;BME280;58263;48.146;11.440;2022-11-20T00:43:27;95126.72;;;5.96;75.53
70684;BME280;58263;48.146;11.440;2022-11-20T00:46:00;95119.75;;;5.95;75.87
70684;BME280;58263;48.146;11.440;2022-11-20T00:48:26;95132.03;;;5.96;75.63
70684;BME280;58263;48.146;11.440;2022-11-20T00:50:52;95125.28;;;6.00;75.71
70684;BME280;58263;48.146;11.440;2022-11-20T00:53:17;95132.59;;;6.05;74.97
70684;BME280;58263;48.146;11.440;2022-11-20T00:55:43;95136.69;;;6.07;75.62
70684;BME280;58263;48.146;11.440;2022-11-20T00:58:08;95134.78;;;5.83;75.34
70684;BME280;58263;48.146;11.440;2022-11-20T01:00:34;95133.50;;;5.92;75.62
70684;BME280;58263;48.146;11.440;2022-11-20T01:02:59;95135.09;;;5.93;75.49
70684;BME280;58263;48.146;11.440;2022-11-20T01:05:25;95142.50;;;5.91;75.52
70684;BME280;58263;48.146;11.440;2022-11-20T01:07:50;95150.88;;;5.95;75.79
70684;BME280;58263;48.146;11.440;2022-11-20T01:10:15;95135.94;;;5.93;75.23
70684;BME280;58263;48.146;11.440;2022-11-20T01:12:40;95149.84;;;5.96;75.49
70684;BME280;58263;48.146;11.440;2022-11-20T01:15:06;95145.16;;;5.98;75.66
70684;BME280;58263;48.146;11.440;2022-11-20T01:17:33;95143.31;;;5.91;75.25
70684;BME280;58263;48.146;11.440;2022-11-20T01:19:58;95142.91;;;5.95;75.27
70684;BME280;58263;48.146;11.440;2022-11-20T01:22:23;95153.16;;;5.91;74.83
70684;BME280;58263;48.146;11.440;2022-11-20T01:24:48;95153.53;;;6.01;75.13
70684;BME280;58263;48.146;11.440;2022-11-20T01:27:14;95153.94;;;5.98;74.71
70684;BME280;58263;48.146;11.440;2022-11-20T01:29:39;95153.91;;;6.05;74.51
70684;BME280;58263;48.146;11.440;2022-11-20T01:32:04;95151.91;;;6.00;74.68
70684;BME280;58263;48.146;11.440;2022-11-20T01:34:30;95155.97;;;6.03;74.96
70684;BME280;58263;48.146;11.440;2022-11-20T01:36:55;95156.34;;;6.06;74.87
70684;BME280;58263;48.146;11.440;2022-11-20T01:39:22;95155.53;;;6.06;75.10
70684;BME280;58263;48.146;11.440;2022-11-20T01:41:49;95151.84;;;6.07;75.01
70684;BME280;58263;48.146;11.440;2022-11-20T01:45:00;95149.78;;;6.09;74.63
70684;BME280;58263;48.146;11.440;2022-11-20T01:47:30;95156.56;;;6.05;75.22
70684;BME280;58263;48.146;11.440;2022-11-20T01:50:19;95153.91;;;6.05;75.14
70684;BME280;58263;48.146;11.440;2022-11-20T01:52:52;95155.94;;;6.09;75.43
70684;BME280;58263;48.146;11.440;2022-11-20T01:55:22;95159.63;;;6.08;75.58
70684;BME280;58263;48.146;11.440;2022-11-20T01:57:50;95159.19;;;6.12;75.28
70684;BME280;58263;48.146;11.440;2022-11-20T02:00:18;95148.13;;;6.08;75.13
70684;BME280;58263;48.146;11.440;2022-11-20T02:02:48;95152.69;;;6.01;76.05
70684;BME280;58263;48.146;11.440;2022-11-20T02:05:22;95156.78;;;6.03;75.51
70684;BME280;58263;48.146;11.440;2022-11-20T02:07:49;95153.53;;;6.01;75.28
70684;BME280;58263;48.146;11.440;2022-11-20T02:10:16;95157.63;;;5.97;74.86
70684;BME280;58263;48.146;11.440;2022-11-20T02:12:41;95158.09;;;5.87;75.03
70684;BME280;58263;48.146;11.440;2022-11-20T02:15:25;95157.00;;;5.95;75.30
70684;BME280;58263;48.146;11.440;2022-11-20T02:17:50;95161.72;;;6.00;75.11
70684;BME280;58263;48.146;11.440;2022-11-20T02:20:16;95160.47;;;6.02;74.95
70684;BME280;58263;48.146;11.440;2022-11-20T02:22:50;95159.66;;;6.02;74.89
70684;BME280;58263;48.146;11.440;2022-11-20T02:25:19;95160.13;;;5.92;74.70
70684;BME280;58263;48.146;11.440;2022-11-20T02:27:44;95160.16;;;5.85;74.93
70684;BME280;58263;48.146;11.440;2022-11-20T02:30:10;95159.31;;;5.85;74.95
70684;BME280;58263;48.146;11.440;2022-11-20T02:32:37;95153.41;;;5.83;74.93
70684;BME280;58263;48.146;11.440;2022-11-20T02:37:54;95159.31;;;5.85;74.87
70684;BME280;58263;48.146;11.440;2022-11-20T02:40:19;95150.78;;;5.76;74.37
70684;BME280;58263;48.146;11.440;2022-11-20T02:42:45;95161.84;;;5.80;74.27
70684;BME280;58263;48.146;11.440;2022-11-20T02:45:11;95159.31;;;5.85;74.42
70684;BME280;58263;48.146;11.440;2022-11-20T02:47:36;95156.66;;;5.85;74.18
70684;BME280;58263;48.146;11.440;2022-11-20T02:50:03;95157.88;;;5.89;74.33
70684;BME280;58263;48.146;11.440;2022-11-20T02:52:29;95151.97;;;5.87;74.52
70684;BME280;58263;48.146;11.440;2022-11-20T02:54:55;95155.19;;;5.89;74.16
70684;BME280;58263;48.146;11.440;2022-11-20T02:57:20;95159.69;;;5.95;74.11
70684;BME280;58263;48.146;11.440;2022-11-20T02:59:45;95156.22;;;5.95;74.23
70684;BME280;58263;48.146;11.440;2022-11-20T03:02:10;95157.00;;;5.95;74.12
70684;BME280;58263;48.146;11.440;2022-11-20T03:04:36;95153.16;;;5.91;73.76
70684;BME280;58263;48.146;11.440;2022-11-20T03:07:01;95153.16;;;5.91;73.53
70684;BME280;58263;48.146;11.440;2022-11-20T03:09:26;95157.28;;;5.87;73.62
70684;BME280;58263;48.146;11.440;2022-11-20T03:11:52;95154.78;;;5.92;72.63
70684;BME280;58263;48.146;11.440;2022-11-20T03:14:17;95147.84;;;5.91;73.05
70684;BME280;58263;48.146;11.440;2022-11-20T03:16:42;95153.16;;;5.91;73.50
70684;BME280;58263;48.146;11.440;2022-11-20T03:19:08;95147.81;;;5.98;73.22
70684;BME280;58263;48.146;11.440;2022-11-20T03:21:33;95149.22;;;6.00;73.51
70684;BME280;58263;48.146;11.440;2022-11-20T03:23:59;95154.78;;;5.99;73.07
70684;BME280;58263;48.146;11.440;2022-11-20T03:26:25;95151.47;;;5.97;73.07
70684;BME280;58263;48.146;11.440;2022-11-20T03:28:54;95146.78;;;5.99;74.17
70684;BME280;58263;48.146;11.440;2022-11-20T03:31:29;95145.97;;;5.98;73.32
70684;BME280;58263;48.146;11.440;2022-11-20T03:33:56;95142.06;;;5.94;73.45
70684;BME280;58263;48.146;11.440;2022-11-20T03:36:21;95142.91;;;5.95;72.69
70684;BME280;58263;48.146;11.440;2022-11-20T03:38:47;95149.03;;;5.95;73.00
70684;BME280;58263;48.146;11.440;2022-11-20T03:41:17;95153.59;;;5.88;72.83
70684;BME280;58263;48.146;11.440;2022-11-20T03:43:50;95147.22;;;5.89;73.43
70684;BME280;58263;48.146;11.440;2022-11-20T03:46:16;95147.63;;;5.92;72.81
70684;BME280;58263;48.146;11.440;2022-11-20T03:48:42;95159.47;;;5.97;73.22
70684;BME280;58263;48.146;11.440;2022-11-20T03:51:08;95152.72;;;5.94;72.79
70684;BME280;58263;48.146;11.440;2022-11-20T03:53:33;95151.69;;;5.95;72.86
70684;BME280;58263;48.146;11.440;2022-11-20T03:55:59;95159.72;;;5.88;72.52
70684;BME280;58263;48.146;11.440;2022-11-20T03:58:24;95152.72;;;5.94;72.72
70684;BME280;58263;48.146;11.440;2022-11-20T04:00:49;95158.91;;;5.88;72.56
70684;BME280;58263;48.146;11.440;2022-11-20T04:03:14;95158.47;;;5.91;72.74
70684;BME280;58263;48.146;11.440;2022-11-20T04:05:40;95155.31;;;5.75;73.08
70684;BME280;58263;48.146;11.440;2022-11-20T04:08:05;95160.53;;;5.89;73.23
70684;BME280;58263;48.146;11.440;2022-11-20T04:10:30;95154.84;;;5.85;72.60
70684;BME280;58263;48.146;11.440;2022-11-20T04:12:56;95156.53;;;5.80;72.70
70684;BME280;58263;48.146;11.440;2022-11-20T04:15:21;95147.03;;;5.90;72.60
70684;BME280;58263;48.146;11.440;2022-11-20T04:17:46;95158.91;;;5.88;73.04
70684;BME280;58263;48.146;11.440;2022-11-20T04:20:12;95155.00;;;5.90;72.56
70684;BME280;58263;48.146;11.440;2022-11-20T04:22:37;95153.16;;;5.91;72.13
70684;BME280;58263;48.146;11.440;2022-11-20T04:25:02;95152.81;;;5.81;72.39
70684;BME280;58263;48.146;11.440;2022-11-20T04:27:28;95152.34;;;5.90;72.67
70684;BME280;58263;48.146;11.440;2022-11-20T04:29:55;95154.78;;;5.92;72.47
70684;BME280;58263;48.146;11.440;2022-11-20T04:32:20;95154.34;;;5.95;73.02
70684;BME280;58263;48.146;11.440;2022-11-20T04:34:45;95148.00;;;5.96;72.57
70684;BME280;58263;48.146;11.440;2022-11-20T04:37:11;95149.88;;;5.89;71.96
70684;BME280;58263;48.146;11.440;2022-11-20T04:39:36;95155.41;;;5.87;72.78
70684;BME280;58263;48.146;11.440;2022-11-20T04:42:01;95156.03;;;5.89;72.63
70684;BME280;58263;48.146;11.440;2022-11-20T04:44:45;95153.41;;;5.83;72.56
70684;BME280;58263;48.146;11.440;2022-11-20T04:47:10;95157.53;;;5.79;72.38
70684;BME280;58263;48.146;11.440;2022-11-20T04:49:35;95152.22;;;5.79;72.62
70684;BME280;58263;48.146;11.440;2022-11-20T04:52:00;95157.97;;;5.75;72.85
70684;BME280;58263;48.146;11.440;2022-11-20T04:54:26;95146.91;;;5.79;72.98
70684;BME280;58263;48.146;11.440;2022-11-20T04:56:51;95147.13;;;5.77;72.77
70684;BME280;58263;48.146;11.440;2022-11-20T04:59:16;95147.91;;;5.78;72.75
70684;BME280;58263;48.146;11.440;2022-11-20T05:01:42;95148.78;;;5.71;73.18
70684;BME280;58263;48.146;11.440;2022-11-20T05:04:07;95148.78;;;5.71;72.97
70684;BME280;58263;48.146;11.440;2022-11-20T05:06:32;95149.16;;;5.75;72.65
70684;BME280;58263;48.146;11.440;2022-11-20T05:08:58;95152.44;;;5.77;72.54
70684;BME280;58263;48.146;11.440;2022-11-20T05:11:24;95141.78;;;5.77;72.68
70684;BME280;58263;48.146;11.440;2022-11-20T05:13:51;95148.69;;;5.85;72.83
70684;BME280;58263;48.146;11.440;2022-11-20T05:16:25;95151.97;;;5.87;72.53
70684;BME280;58263;48.146;11.440;2022-11-20T05:18:53;95158.09;;;5.87;72.24
70684;BME280;58263;48.146;11.440;2022-11-20T05:21:19;95157.97;;;5.75;72.55
70684;BME280;58263;48.146;11.440;2022-11-20T05:23:45;95153.69;;;5.74;72.59
70684;BME280;58263;48.146;11.440;2022-11-20T05:26:16;95161.03;;;5.72;72.23
70684;BME280;58263;48.146;11.440;2022-11-20T05:28:42;95158.63;;;5.64;72.63
70684;BME280;58263;48.146;11.440;2022-11-20T05:31:09;95162.25;;;5.76;72.35
70684;BME280;58263;48.146;11.440;2022-11-20T05:33:35;95153.25;;;5.78;72.86
70684;BME280;58263;48.146;11.440;2022-11-20T05:36:02;95150.66;;;5.64;72.04
70684;BME280;58263;48.146;11.440;2022-11-20T05:38:28;95153.94;;;5.66;72.24
70684;BME280;58263;48.146;11.440;2022-11-20T05:40:53;95159.88;;;5.62;72.33
70684;BME280;58263;48.146;11.440;2022-11-20T05:43:18;95159.84;;;5.68;72.88
70684;BME280;58263;48.146;11.440;2022-11-20T05:45:54;95160.28;;;5.65;72.14
70684;BME280;58263;48.146;11.440;2022-11-20T05:48:19;95153.72;;;5.68;72.36
70684;BME280;58263;48.146;11.440;2022-11-20T05:50:45;95156.97;;;5.70;72.12
70684;BME280;58263;48.146;11.440;2022-11-20T05:53:10;95157.44;;;5.60;72.07
70684;BME280;58263;48.146;11.440;2022-11-20T05:55:35;95159.03;;;5.68;72.28
70684;BME280;58263;48.146;11.440;2022-11-20T05:58:00;95161.69;;;5.68;72.61
70684;BME280;58263;48.146;11.440;2022-11-20T06:00:26;95162.34;;;5.63;72.94
70684;BME280;58263;48.146;11.440;2022-11-20T06:02:51;95156.59;;;5.66;72.47
70684;BME280;58263;48.146;11.440;2022-11-20T06:05:16;95166.47;;;5.59;72.70
70684;BME280;58263;48.146;11.440;2022-11-20T06:07:42;95163.84;;;5.52;72.63
70684;BME280;58263;48.146;11.440;2022-11-20T06:10:08;95168.50;;;5.57;72.55
70684;BME280;58263;48.146;11.440;2022-11-20T06:12:33;95167.00;;;5.36;72.34
70684;BME280;58263;48.146;11.440;2022-11-20T06:14:59;95166.94;;;5.42;72.66
70684;BME280;58263;48.146;11.440;2022-11-20T06:17:24;95162.03;;;5.46;72.65
70684;BME280;58263;48.146;11.440;2022-11-20T06:19:49;95166.38;;;5.34;72.33
70684;BME280;58263;48.146;11.440;2022-11-20T06:22:15;95168.81;;;5.35;71.96
70684;BME280;58263;48.146;11.440;2022-11-20T06:24:40;95170.66;;;5.41;71.71
70684;BME280;58263;48.146;11.440;2022-11-20T06:27:05;95166.16;;;5.35;71.46
70684;BME280;58263;48.146;11.440;2022-11-20T06:29:31;95166.66;;;5.19;70.91
70684;BME280;58263;48.146;11.440;2022-11-20T06:31:56;95171.13;;;5.25;71.41
70684;BME280;58263;48.146;11.440;2022-11-20T06:34:21;95174.78;;;5.31;70.86
70684;BME280;58263;48.146;11.440;2022-11-20T06:36:46;95172.97;;;5.24;70.50
70684;BME280;58263;48.146;11.440;2022-11-20T06:39:12;95175.22;;;5.28;70.74
70684;BME280;58263;48.146;11.440;2022-11-20T06:41:37;95179.69;;;5.34;70.54
70684;BME280;58263;48.146;11.440;2022-11-20T06:44:04;95181.16;;;5.23;70.28
70684;BME280;58263;48.146;11.440;2022-11-20T06:46:30;95187.06;;;5.32;69.87
70684;BME280;58263;48.146;11.440;2022-11-20T06:48:56;95181.59;;;5.20;69.29
70684;BME280;58263;48.146;11.440;2022-11-20T06:51:21;95179.31;;;5.23;69.29
70684;BME280;58263;48.146;11.440;2022-11-20T06:53:47;95175.63;;;5.24;69.51
70684;BME280;58263;48.146;11.440;2022-11-20T06:56:12;95192.41;;;5.25;69.47
70684;BME280;58263;48.146;11.440;2022-11-20T06:58:38;95196.50;;;5.28;69.52
70684;BME280;58263;48.146;11.440;2022-11-20T07:01:06;95194.00;;;5.33;69.19
70684;BME280;58263;48.146;11.440;2022-11-20T07:03:32;95200.13;;;5.40;69.30
70684;BME280;58263;48.146;11.440;2022-11-20T07:05:58;95196.88;;;5.31;69.41
70684;BME280;58263;48.146;11.440;2022-11-20T07:08:25;95197.66;;;5.38;69.84
70684;BME280;58263;48.146;11.440;2022-11-20T07:10:50;95200.97;;;5.27;69.89
70684;BME280;58263;48.146;11.440;2022-11-20T07:13:16;95204.00;;;5.37;70.05
70684;BME280;58263;48.146;11.440;2022-11-20T07:15:41;95197.28;;;5.35;70.26
70684;BME280;58263;48.146;11.440;2022-11-20T07:18:06;95207.25;;;5.39;70.04
70684;BME280;58263;48.146;11.440;2022-11-20T07:20:32;95205.03;;;5.36;70.59
70684;BME280;58263;48.146;11.440;2022-11-20T07:22:57;95209.91;;;5.39;70.60
70684;BME280;58263;48.146;11.440;2022-11-20T07:25:24;95207.63;;;5.50;70.69
70684;BME280;58263;48.146;11.440;2022-11-20T07:27:49;95204.56;;;5.53;71.06
70684;BME280;58263;48.146;11.440;2022-11-20T07:30:15;95212.31;;;5.54;70.64
70684;BME280;58263;48.146;11.440;2022-11-20T07:32:41;95211.88;;;5.57;71.19
70684;BME280;58263;48.146;11.440;2022-11-20T07:35:06;95210.66;;;5.53;70.84
70684;BME280;58263;48.146;11.440;2022-11-20T07:37:34;95210.31;;;5.50;70.48
70684;BME280;58263;48.146;11.440;2022-11-20T07:40:00;95211.06;;;5.57;70.55
70684;BME280;58263;48.146;11.440;2022-11-20T07:42:25;95202.94;;;5.45;71.08
70684;BME280;58263;48.146;11.440;2022-11-20T07:44:50;95204.09;;;5.63;71.27
70684;BME280;58263;48.146;11.440;2022-11-20T07:47:16;95208.34;;;5.70;70.81
70684;BME280;58263;48.146;11.440;2022-11-20T07:49:41;95214.41;;;5.84;70.62
70684;BME280;58263;48.146;11.440;2022-11-20T07:52:06;95217.97;;;5.71;70.02
70684;BME280;58263;48.146;11.440;2022-11-20T07:54:32;95214.09;;;5.67;70.54
70684;BME280;58263;48.146;11.440;2022-11-20T07:56:57;95210.59;;;5.73;71.05
70684;BME280;58263;48.146;11.440;2022-11-20T07:59:22;95211.97;;;5.83;70.42
70684;BME280;58263;48.146;11.440;2022-11-20T08:01:47;95206.38;;;5.91;70.64
70684;BME280;58263;48.146;11.440;2022-11-20T08:04:13;95207.19;;;5.91;70.06
70684;BME280;58263;48.146;11.440;2022-11-20T08:06:40;95215.56;;;5.95;69.93
70684;BME280;58263;48.146;11.440;2022-11-20T08:09:05;95212.09;;;6.01;69.86
70684;BME280;58263;48.146;11.440;2022-11-20T08:11:30;95218.50;;;6.19;69.42
70684;BME280;58263;48.146;11.440;2022-11-20T08:14:14;95217.66;;;6.25;70.10
70684;BME280;58263;48.146;11.440;2022-11-20T08:16:46;95216.72;;;6.13;68.86
70684;BME280;58263;48.146;11.440;2022-11-20T08:19:16;95213.19;;;6.19;68.88
70684;BME280;58263;48.146;11.440;2022-11-20T08:21:42;95227.91;;;6.21;68.93
70684;BME280;58263;48.146;11.440;2022-11-20T08:24:08;95220.75;;;6.22;68.95
70684;BME280;58263;48.146;11.440;2022-11-20T08:26:34;95219.88;;;6.28;68.13
70684;BME280;58263;48.146;11.440;2022-11-20T08:29:00;95222.78;;;6.26;67.67
70684;BME280;58263;48.146;11.440;2022-11-20T08:31:27;95227.28;;;6.26;67.20
70684;BME280;58263;48.146;11.440;2022-11-20T08:33:53;95213.75;;;6.28;67.40
70684;BME280;58263;48.146;11.440;2022-11-20T08:36:19;95215.88;;;6.44;67.78
70684;BME280;58263;48.146;11.440;2022-11-20T08:38:49;95224.19;;;6.29;66.60
70684;BME280;58263;48.146;11.440;2022-11-20T08:41:15;95222.56;;;6.53;66.94
70684;BME280;58263;48.146;11.440;2022-11-20T08:43:52;95218.38;;;6.64;66.41
70684;BME280;58263;48.146;11.440;2022-11-20T08:46:18;95222.38;;;6.73;65.76
70684;BME280;58263;48.146;11.440;2022-11-20T08:48:44;95223.16;;;6.55;65.53
70684;BME280;58263;48.146;11.440;2022-11-20T08:51:11;95220.22;;;6.64;65.37
70684;BME280;58263;48.146;11.440;2022-11-20T08:53:37;95219.59;;;6.87;64.65
70684;BME280;58263;48.146;11.440;2022-11-20T08:56:02;95213.69;;;6.85;65.19
70684;BME280;58263;48.146;11.440;2022-11-20T08:58:28;95216.69;;;6.88;64.72
70684;BME280;58263;48.146;11.440;2022-11-20T09:00:53;95218.56;;;6.88;64.56
70684;BME280;58263;48.146;11.440;2022-11-20T09:03:19;95212.50;;;6.99;64.92
70684;BME280;58263;48.146;11.440;2022-11-20T09:05:44;95211.81;;;6.85;64.63
70684;BME280;58263;48.146;11.440;2022-11-20T09:08:10;95212.84;;;6.84;64.17
70684;BME280;58263;48.146;11.440;2022-11-20T09:10:35;95217.53;;;7.07;63.82
70684;BME280;58263;48.146;11.440;2022-11-20T09:13:01;95218.88;;;7.17;63.98
70684;BME280;58263;48.146;11.440;2022-11-20T09:15:27;95220.59;;;7.30;63.68
70684;BME280;58263;48.146;11.440;2022-11-20T09:17:54;95204.72;;;7.35;62.94
70684;BME280;58263;48.146;11.440;2022-11-20T09:20:20;95214.19;;;7.31;63.36
70684;BME280;58263;48.146;11.440;2022-11-20T09:22:45;95209.69;;;7.31;62.92
70684;BME280;58263;48.146;11.440;2022-11-20T09:25:11;95207.59;;;7.33;62.46
70684;BME280;58263;48.146;11.440;2022-11-20T09:27:36;95211.22;;;7.39;62.59
70684;BME280;58263;48.146;11.440;2022-11-20T09:30:02;95209.69;;;7.31;63.05
70684;BME280;58263;48.146;11.440;2022-11-20T09:32:27;95199.59;;;7.33;62.68
70684;BME280;58263;48.146;11.440;2022-11-20T09:34:53;95198.13;;;7.37;62.90
70684;BME280;58263;48.146;11.440;2022-11-20T09:37:18;95199.38;;;7.35;62.21
70684;BME280;58263;48.146;11.440;2022-11-20T09:39:43;95204.38;;;7.31;62.37
70684;BME280;58263;48.146;11.440;2022-11-20T09:42:30;95202.72;;;7.30;61.90
70684;BME280;58263;48.146;11.440;2022-11-20T09:50:46;95192.50;;;8.06;60.36
70684;BME280;58263;48.146;11.440;2022-11-20T09:56:09;95190.03;;;8.47;58.54
70684;BME280;58263;48.146;11.440;2022-11-20T09:58:41;95182.50;;;8.56;58.06
70684;BME280;58263;48.146;11.440;2022-11-20T10:01:12;95175.53;;;8.78;58.01
70684;BME280;58263;48.146;11.440;2022-11-20T10:03:58;95172.63;;;9.44;56.87
70684;BME280;58263;48.146;11.440;2022-11-20T10:06:32;95173.44;;;9.45;55.87
70684;BME280;58263;48.146;11.440;2022-11-20T10:14:25;95175.50;;;9.55;55.05
70684;BME280;58263;48.146;11.440;2022-11-20T10:26:06;95167.00;;;9.58;54.96
70684;BME280;58263;48.146;11.440;2022-11-20T10:29:12;95175.84;;;9.87;54.77
70684;BME280;58263;48.146;11.440;2022-11-20T10:31:52;95174.25;;;9.45;55.37
70684;BME280;58263;48.146;11.440;2022-11-20T10:34:27;95173.94;;;9.30;56.26
70684;BME280;58263;48.146;11.440;2022-11-20T10:37:01;95181.03;;;9.36;55.28
70684;BME280;58263;48.146;11.440;2022-11-20T10:39:35;95178.22;;;9.72;55.11
70684;BME280;58263;48.146;11.440;2022-11-20T10:42:09;95184.69;;;9.59;55.48
70684;BME280;58263;48.146;11.440;2022-11-20T10:44:36;95174.72;;;9.42;55.38
70684;BME280;58263;48.146;11.440;2022-11-20T10:47:20;95168.47;;;9.37;55.29
70684;BME280;58263;48.146;11.440;2022-11-20T10:49:51;95189.41;;;9.40;55.05
70684;BME280;58263;48.146;11.440;2022-11-20T10:52:46;95181.16;;;9.29;54.99
70684;BME280;58263;48.146;11.440;2022-11-20T10:55:30;95188.16;;;9.19;56.25
70684;BME280;58263;48.146;11.440;2022-11-20T10:58:12;95180.25;;;9.24;54.78
70684;BME280;58263;48.146;11.440;2022-11-20T11:00:38;95183.31;;;9.44;54.88
70684;BME280;58263;48.146;11.440;2022-11-20T11:03:19;95174.31;;;9.22;55.93
70684;BME280;58263;48.146;11.440;2022-11-20T11:05:53;95182.25;;;9.05;56.02
70684;BME280;58263;48.146;11.440;2022-11-20T11:08:20;95170.00;;;9.21;56.51
70684;BME280;58263;48.146;11.440;2022-11-20T11:10:51;95175.19;;;9.39;57.19
70684;BME280;58263;48.146;11.440;2022-11-20T11:13:23;95165.56;;;9.26;56.29
70684;BME280;58263;48.146;11.440;2022-11-20T11:15:49;95163.53;;;9.45;56.87
70684;BME280;58263;48.146;11.440;2022-11-20T11:18:29;95162.25;;;9.77;55.90
70684;BME280;58263;48.146;11.440;2022-11-20T11:20:56;95156.91;;;9.48;55.99
70684;BME280;58263;48.146;11.440;2022-11-20T11:26:00;95147.22;;;9.59;55.34
70684;BME280;58263;48.146;11.440;2022-11-20T11:28:27;95145.56;;;9.29;54.98
70684;BME280;58263;48.146;11.440;2022-11-20T11:30:53;95150.13;;;9.57;55.00
70684;BME280;58263;48.146;11.440;2022-11-20T11:33:22;95146.59;;;9.28;56.34
70684;BME280;58263;48.146;11.440;2022-11-20T11:35:50;95144.91;;;9.10;55.79
70684;BME280;58263;48.146;11.440;2022-11-20T11:38:39;95139.69;;;9.03;55.87
70684;BME280;58263;48.146;11.440;2022-11-20T11:41:08;95149.00;;;9.41;56.15
70684;BME280;58263;48.146;11.440;2022-11-20T11:43:36;95147.00;;;9.48;55.42
70684;BME280;58263;48.146;11.440;2022-11-20T11:51:39;95135.34;;;9.26;54.86
70684;BME280;58263;48.146;11.440;2022-11-20T11:54:17;95145.34;;;9.19;56.55
70684;BME280;58263;48.146;11.440;2022-11-20T11:56:44;95150.72;;;9.07;55.51
70684;BME280;58263;48.146;11.440;2022-11-20T11:59:14;95151.66;;;8.89;56.61
70684;BME280;58263;48.146;11.440;2022-11-20T12:01:45;95164.25;;;8.53;61.49
70684;BME280;58263;48.146;11.440;2022-11-20T12:07:15;95156.88;;;8.36;63.62
70684;BME280;58263;48.146;11.440;2022-11-20T12:09:52;95153.72;;;8.16;63.98
70684;BME280;58263;48.146;11.440;2022-11-20T12:12:23;95154.56;;;8.28;63.49
70684;BME280;58263;48.146;11.440;2022-11-20T12:14:53;95153.84;;;8.21;63.95
70684;BME280;58263;48.146;11.440;2022-11-20T12:17:19;95150.47;;;8.02;63.99
70684;BME280;58263;48.146;11.440;2022-11-20T12:19:45;95150.31;;;8.08;62.70
70684;BME280;58263;48.146;11.440;2022-11-20T12:22:39;95143.16;;;7.67;64.39
70684;BME280;58263;48.146;11.440;2022-11-20T12:25:24;95145.50;;;7.44;63.68
70684;BME280;58263;48.146;11.440;2022-11-20T12:30:42;95144.22;;;7.47;65.20
70684;BME280;58263;48.146;11.440;2022-11-20T12:39:08;95149.84;;;7.57;65.99
70684;BME280;58263;48.146;11.440;2022-11-20T12:45:08;95147.72;;;7.48;66.44
70684;BME280;58263;48.146;11.440;2022-11-20T12:48:14;95149.06;;;7.38;65.97
70684;BME280;58263;48.146;11.440;2022-11-20T12:53:58;95147.38;;;7.25;66.70
70684;BME280;58263;48.146;11.440;2022-11-20T12:56:48;95150.56;;;7.16;66.23
70684;BME280;58263;48.146;11.440;2022-11-20T13:03:06;95150.56;;;7.34;66.21
70684;BME280;58263;48.146;11.440;2022-11-20T13:08:27;95136.97;;;7.05;67.40
70684;BME280;58263;48.146;11.440;2022-11-20T13:10:59;95138.28;;;6.96;68.02
70684;BME280;58263;48.146;11.440;2022-11-20T13:16:30;95132.94;;;6.96;68.69
70684;BME280;58263;48.146;11.440;2022-11-20T13:19:02;95126.75;;;7.02;69.24
70684;BME280;58263;48.146;11.440;2022-11-20T13:21:39;95125.97;;;6.95;69.69
70684;BME280;58263;48.146;11.440;2022-11-20T13:29:30;95125.09;;;7.01;69.99
70684;BME280;58263;48.146;11.440;2022-11-20T13:32:22;95118.50;;;6.85;69.82
70684;BME280;58263;48.146;11.440;2022-11-20T13:34:58;95113.25;;;6.97;70.54
70684;BME280;58263;48.146;11.440;2022-11-20T13:37:37;95116.22;;;6.89;69.85
70684;BME280;58263;48.146;11.440;2022-11-20T13:42:44;95108.72;;;6.98;69.36
70684;BME280;58263;48.146;11.440;2022-11-20T13:45:21;95110.59;;;6.97;68.73
70684;BME280;58263;48.146;11.440;2022-11-20T13:47:48;95106.81;;;7.05;69.20
70684;BME280;58263;48.146;11.440;2022-11-20T13:50:14;95110.44;;;6.92;69.83
70684;BME280;58263;48.146;11.440;2022-11-20T13:53:01;95103.19;;;6.81;69.94
70684;BME280;58263;48.146;11.440;2022-11-20T13:55:49;95103.28;;;6.74;69.25
70684;BME280;58263;48.146;11.440;2022-11-20T14:01:16;95102.16;;;6.82;69.67
70684;BME280;58263;48.146;11.440;2022-11-20T14:03:43;95108.97;;;6.96;69.12
70684;BME280;58263;48.146;11.440;2022-11-20T14:06:28;95103.56;;;7.03;68.43
70684;BME280;58263;48.146;11.440;2022-11-20T14:08:55;95107.84;;;7.04;67.94
70684;BME280;58263;48.146;11.440;2022-11-20T14:11:26;95107.41;;;7.07;68.04
70684;BME280;58263;48.146;11.440;2022-11-20T14:14:00;95110.66;;;7.09;68.05
70684;BME280;58263;48.146;11.440;2022-11-20T14:16:28;95107.94;;;6.97;68.17
70684;BME280;58263;48.146;11.440;2022-11-20T14:18:55;95115.63;;;7.05;67.75
70684;BME280;58263;48.146;11.440;2022-11-20T14:21:22;95109.91;;;7.02;68.25
70684;BME280;58263;48.146;11.440;2022-11-20T14:23:48;95107.78;;;7.10;67.88